100LL.CA
Aviation Fuel Pricing for Canadians
Please upgrade your browser - Tested with IE9, FireFox, Chrome, Safari

Fuel Airports Other Help
Prices Economy Info List METAR/TAF Kneeboard Help

Reference Airport: STONY RAPIDS, SK
N 59 15 01  W 105 50 29
Provinces to show:

CYSF STONY RAPIDS, SK
WEATHER
METARCYSF 131900Z AUTO 17004KT 110V180 9SM OVC009 04/02 A2953 RMK SLP017
TAFTAF CYSF 131740Z 1318/1406 VRB03KT P6SM SCT008 BKN050 TEMPO 1318/1323 5SM -SHRA BR BKN008 BECMG 1321/1323 27010KT FM132300 27010KT P6SM SCT005 OVC010 TEMPO 1323/1406 2SM -RA BR OVC005 BECMG 1401/1403 27006KT RMK FCST BASED ON AUTO OBS. NXT FCST BY 140000Z
OTHER SITES

FlightAware

FltPlan

Google Maps

SkyVector
FUEL
FBO 100LL
member
100LL
public
JETA MOGAS
Snowbird Petroleum (2018-04-03)2.3752.009
Canada Flight Supplement - CYSF
(opens in new tab/window)


Please Send Updates!

Desktop Version ]  [ Mobile Version ]  [ Disclaimer ]